Plainfield, Illinois
Current Conditions -  °F | °C
As of 11:15 AM on Thursday 27 Nov 2014 (Local Time) from KLOT Reporting Station
Unknown Precip Unknown Precip  
Wind Chill: -10°   Ceiling: 2000
Heat Index: -3°   Visibility: 10mi
Dew Point: -7°   Wind: 14mph
Humidity: 75%   Direction: 300°WNW
Pressure: 30.34"   Gusts: NA
Location:  41.62°N, 88.2°W
Report Text: KLOT 271715Z AUTO 30012KT 10SM UP OVC020 M03/M07 A3034 RMK AO2 T10351074
Loading
Personal Weather Stations






























Interactive Weather Map New forecast layout! Learn more

10-Day Weather Forecast

Advertisements
Track Severe Weather on mobile